sensor_id;sensor_type;location;lat;lon;timestamp;pressure;altitude;pressure_sealevel;temperature;humidity
75317;BME280;63913;51.492;10.368;2023-04-06T00:00:53;98751.81;;;0.50;65.18
75317;BME280;63913;51.492;10.368;2023-04-06T00:03:18;98751.44;;;0.57;64.68
75317;BME280;63913;51.492;10.368;2023-04-06T00:05:44;98752.03;;;0.53;64.91
75317;BME280;63913;51.492;10.368;2023-04-06T00:08:09;98753.78;;;0.54;64.86
75317;BME280;63913;51.492;10.368;2023-04-06T00:10:35;98750.06;;;0.49;65.03
75317;BME280;63913;51.492;10.368;2023-04-06T00:13:00;98756.50;;;0.44;65.19
75317;BME280;63913;51.492;10.368;2023-04-06T00:15:26;98746.16;;;0.41;65.11
75317;BME280;63913;51.492;10.368;2023-04-06T00:17:51;98745.22;;;0.39;65.29
75317;BME280;63913;51.492;10.368;2023-04-06T00:20:17;98746.97;;;0.40;65.34
75317;BME280;63913;51.492;10.368;2023-04-06T00:22:43;98748.69;;;0.41;65.13
75317;BME280;63913;51.492;10.368;2023-04-06T00:25:09;98737.19;;;0.33;64.97
75317;BME280;63913;51.492;10.368;2023-04-06T00:27:35;98746.97;;;0.40;64.81
75317;BME280;63913;51.492;10.368;2023-04-06T00:30:01;98743.63;;;0.41;64.86
75317;BME280;63913;51.492;10.368;2023-04-06T00:32:27;98741.03;;;0.40;64.69
75317;BME280;63913;51.492;10.368;2023-04-06T00:34:56;98740.44;;;0.44;64.67
75317;BME280;63913;51.492;10.368;2023-04-06T00:37:22;98735.50;;;0.45;64.51
75317;BME280;63913;51.492;10.368;2023-04-06T00:39:47;98732.97;;;0.45;64.49
75317;BME280;63913;51.492;10.368;2023-04-06T00:42:13;98732.84;;;0.44;64.80
75317;BME280;63913;51.492;10.368;2023-04-06T00:44:42;98731.88;;;0.42;64.42
75317;BME280;63913;51.492;10.368;2023-04-06T00:47:08;98724.22;;;0.40;64.49
75317;BME280;63913;51.492;10.368;2023-04-06T00:49:34;98717.97;;;0.35;64.74
75317;BME280;63913;51.492;10.368;2023-04-06T00:52:00;98722.84;;;0.32;64.79
75317;BME280;63913;51.492;10.368;2023-04-06T00:54:26;98717.19;;;0.36;64.77
75317;BME280;63913;51.492;10.368;2023-04-06T00:56:51;98723.72;;;0.32;64.81
75317;BME280;63913;51.492;10.368;2023-04-06T00:59:17;98712.91;;;0.35;64.70
75317;BME280;63913;51.492;10.368;2023-04-06T01:01:42;98709.97;;;0.29;64.91
75317;BME280;63913;51.492;10.368;2023-04-06T01:04:22;98705.91;;;0.31;64.67
75317;BME280;63913;51.492;10.368;2023-04-06T01:06:49;98713.66;;;0.34;64.66
75317;BME280;63913;51.492;10.368;2023-04-06T01:09:15;98713.00;;;0.36;64.83
75317;BME280;63913;51.492;10.368;2023-04-06T01:11:40;98706.69;;;0.30;65.21
75317;BME280;63913;51.492;10.368;2023-04-06T01:14:09;98703.38;;;0.31;65.08
75317;BME280;63913;51.492;10.368;2023-04-06T01:16:51;98703.16;;;0.28;65.30
75317;BME280;63913;51.492;10.368;2023-04-06T01:19:20;98695.59;;;0.28;65.85
75317;BME280;63913;51.492;10.368;2023-04-06T01:21:50;98696.19;;;0.24;66.30
75317;BME280;63913;51.492;10.368;2023-04-06T01:24:30;98697.13;;;0.26;66.02
75317;BME280;63913;51.492;10.368;2023-04-06T01:27:12;98689.16;;;0.20;66.09
75317;BME280;63913;51.492;10.368;2023-04-06T01:30:07;98685.97;;;0.22;65.87
75317;BME280;63913;51.492;10.368;2023-04-06T01:32:39;98687.50;;;0.20;66.07
75317;BME280;63913;51.492;10.368;2023-04-06T01:35:06;98678.47;;;0.24;65.45
75317;BME280;63913;51.492;10.368;2023-04-06T01:37:35;98685.84;;;0.21;65.22
75317;BME280;63913;51.492;10.368;2023-04-06T01:40:04;98682.56;;;0.22;65.19
75317;BME280;63913;51.492;10.368;2023-04-06T01:42:40;98678.38;;;0.22;65.23
75317;BME280;63913;51.492;10.368;2023-04-06T01:45:07;98670.19;;;0.13;65.46
75317;BME280;63913;51.492;10.368;2023-04-06T01:47:33;98674.25;;;0.11;65.53
75317;BME280;63913;51.492;10.368;2023-04-06T01:49:58;98674.75;;;0.06;65.59
75317;BME280;63913;51.492;10.368;2023-04-06T01:52:24;98673.28;;;0.09;65.45
75317;BME280;63913;51.492;10.368;2023-04-06T01:54:52;98678.25;;;0.08;65.66
75317;BME280;63913;51.492;10.368;2023-04-06T01:57:40;98675.53;;;0.05;65.48
75317;BME280;63913;51.492;10.368;2023-04-06T02:00:14;98666.28;;;0.05;65.73
75317;BME280;63913;51.492;10.368;2023-04-06T02:02:42;98679.41;;;-0.01;66.06
75317;BME280;63913;51.492;10.368;2023-04-06T02:05:15;98665.69;;;-0.04;66.24
75317;BME280;63913;51.492;10.368;2023-04-06T02:07:41;98673.06;;;-0.07;66.19
75317;BME280;63913;51.492;10.368;2023-04-06T02:10:12;98667.22;;;-0.06;66.17
75317;BME280;63913;51.492;10.368;2023-04-06T02:12:37;98671.41;;;-0.07;65.87
75317;BME280;63913;51.492;10.368;2023-04-06T02:15:04;98667.34;;;-0.05;66.19
75317;BME280;63913;51.492;10.368;2023-04-06T02:17:30;98671.50;;;-0.05;66.01
75317;BME280;63913;51.492;10.368;2023-04-06T02:19:55;98669.84;;;-0.05;66.05
75317;BME280;63913;51.492;10.368;2023-04-06T02:22:20;98673.38;;;-0.03;66.11
75317;BME280;63913;51.492;10.368;2023-04-06T02:24:46;98679.75;;;-0.08;66.04
75317;BME280;63913;51.492;10.368;2023-04-06T02:27:13;98674.81;;;-0.06;66.33
75317;BME280;63913;51.492;10.368;2023-04-06T02:29:38;98675.13;;;-0.02;66.28
75317;BME280;63913;51.492;10.368;2023-04-06T02:32:04;98676.06;;;0.00;66.18
75317;BME280;63913;51.492;10.368;2023-04-06T02:34:31;98674.13;;;-0.04;66.53
75317;BME280;63913;51.492;10.368;2023-04-06T02:36:56;98660.16;;;0.02;66.11
75317;BME280;63913;51.492;10.368;2023-04-06T02:39:22;98665.19;;;0.02;66.41
75317;BME280;63913;51.492;10.368;2023-04-06T02:41:48;98665.41;;;0.05;66.11
75317;BME280;63913;51.492;10.368;2023-04-06T02:44:18;98668.22;;;0.09;66.02
75317;BME280;63913;51.492;10.368;2023-04-06T02:46:43;98668.16;;;0.08;66.08
75317;BME280;63913;51.492;10.368;2023-04-06T02:49:09;98658.81;;;0.07;66.46
75317;BME280;63913;51.492;10.368;2023-04-06T02:51:34;98673.09;;;0.06;66.30
75317;BME280;63913;51.492;10.368;2023-04-06T02:54:18;98659.59;;;0.06;65.92
75317;BME280;63913;51.492;10.368;2023-04-06T02:56:43;98675.63;;;0.06;65.91
75317;BME280;63913;51.492;10.368;2023-04-06T02:59:09;98672.41;;;0.09;65.45
75317;BME280;63913;51.492;10.368;2023-04-06T03:01:35;98670.56;;;0.06;65.63
75317;BME280;63913;51.492;10.368;2023-04-06T03:04:03;98672.13;;;0.04;65.33
75317;BME280;63913;51.492;10.368;2023-04-06T03:06:29;98669.88;;;0.09;65.07
75317;BME280;63913;51.492;10.368;2023-04-06T03:09:00;98661.63;;;0.11;64.46
75317;BME280;63913;51.492;10.368;2023-04-06T03:11:26;98667.94;;;0.18;63.85
75317;BME280;63913;51.492;10.368;2023-04-06T03:13:52;98665.25;;;0.15;64.42
75317;BME280;63913;51.492;10.368;2023-04-06T03:16:17;98672.06;;;0.16;64.04
75317;BME280;63913;51.492;10.368;2023-04-06T03:18:43;98665.25;;;0.15;64.40
75317;BME280;63913;51.492;10.368;2023-04-06T03:21:12;98662.50;;;0.12;64.41
75317;BME280;63913;51.492;10.368;2023-04-06T03:23:46;98659.97;;;0.12;64.32
75317;BME280;63913;51.492;10.368;2023-04-06T03:26:14;98663.59;;;0.15;64.18
75317;BME280;63913;51.492;10.368;2023-04-06T03:28:40;98662.59;;;0.13;64.43
75317;BME280;63913;51.492;10.368;2023-04-06T03:31:06;98668.81;;;0.05;64.46
75317;BME280;63913;51.492;10.368;2023-04-06T03:33:50;98659.75;;;0.09;64.37
75317;BME280;63913;51.492;10.368;2023-04-06T03:36:23;98666.41;;;0.07;64.68
75317;BME280;63913;51.492;10.368;2023-04-06T03:38:48;98669.59;;;0.04;64.18
75317;BME280;63913;51.492;10.368;2023-04-06T03:41:14;98662.13;;;0.06;64.18
75317;BME280;63913;51.492;10.368;2023-04-06T03:43:44;98662.28;;;0.09;63.80
75317;BME280;63913;51.492;10.368;2023-04-06T03:46:10;98660.09;;;0.13;64.01
75317;BME280;63913;51.492;10.368;2023-04-06T03:48:35;98662.41;;;0.10;63.19
75317;BME280;63913;51.492;10.368;2023-04-06T03:51:04;98662.88;;;0.18;63.05
75317;BME280;63913;51.492;10.368;2023-04-06T03:53:29;98662.63;;;0.26;62.19
75317;BME280;63913;51.492;10.368;2023-04-06T03:55:54;98670.31;;;0.28;62.12
75317;BME280;63913;51.492;10.368;2023-04-06T03:58:20;98672.06;;;0.29;62.61
75317;BME280;63913;51.492;10.368;2023-04-06T04:00:45;98673.31;;;0.22;62.89
75317;BME280;63913;51.492;10.368;2023-04-06T04:03:10;98666.41;;;0.20;63.49
75317;BME280;63913;51.492;10.368;2023-04-06T04:05:36;98675.03;;;0.10;63.66
75317;BME280;63913;51.492;10.368;2023-04-06T04:08:01;98672.22;;;0.06;64.20
75317;BME280;63913;51.492;10.368;2023-04-06T04:10:27;98682.44;;;0.07;64.12
75317;BME280;63913;51.492;10.368;2023-04-06T04:12:52;98678.16;;;0.06;63.70
75317;BME280;63913;51.492;10.368;2023-04-06T04:15:17;98680.84;;;0.09;63.13
75317;BME280;63913;51.492;10.368;2023-04-06T04:17:43;98689.44;;;0.11;63.35
75317;BME280;63913;51.492;10.368;2023-04-06T04:20:12;98686.41;;;0.17;63.47
75317;BME280;63913;51.492;10.368;2023-04-06T04:22:37;98687.00;;;0.13;63.63
75317;BME280;63913;51.492;10.368;2023-04-06T04:25:03;98689.81;;;0.04;64.08
75317;BME280;63913;51.492;10.368;2023-04-06T04:27:30;98689.81;;;0.04;63.84
75317;BME280;63913;51.492;10.368;2023-04-06T04:29:55;98696.28;;;0.00;64.00
75317;BME280;63913;51.492;10.368;2023-04-06T04:32:21;98689.19;;;-0.05;63.86
75317;BME280;63913;51.492;10.368;2023-04-06T04:34:46;98688.44;;;-0.04;64.22
75317;BME280;63913;51.492;10.368;2023-04-06T04:37:22;98692.50;;;-0.06;64.40
75317;BME280;63913;51.492;10.368;2023-04-06T04:39:51;98693.19;;;-0.09;64.77
75317;BME280;63913;51.492;10.368;2023-04-06T04:42:16;98694.63;;;-0.12;64.92
75317;BME280;63913;51.492;10.368;2023-04-06T04:44:47;98690.44;;;-0.12;64.88
75317;BME280;63913;51.492;10.368;2023-04-06T04:47:18;98698.44;;;-0.06;63.93
75317;BME280;63913;51.492;10.368;2023-04-06T04:49:45;98700.84;;;-0.07;64.31
75317;BME280;63913;51.492;10.368;2023-04-06T04:52:15;98693.25;;;-0.07;63.75
75317;BME280;63913;51.492;10.368;2023-04-06T04:54:59;98696.22;;;-0.01;63.60
75317;BME280;63913;51.492;10.368;2023-04-06T04:57:27;98697.16;;;0.01;63.46
75317;BME280;63913;51.492;10.368;2023-04-06T04:59:52;98691.25;;;0.00;63.09
75317;BME280;63913;51.492;10.368;2023-04-06T05:02:18;98690.09;;;0.09;63.18
75317;BME280;63913;51.492;10.368;2023-04-06T05:05:04;98689.81;;;0.04;63.73
75317;BME280;63913;51.492;10.368;2023-04-06T05:07:30;98687.00;;;-0.01;63.82
75317;BME280;63913;51.492;10.368;2023-04-06T05:09:58;98689.53;;;-0.01;64.04
75317;BME280;63913;51.492;10.368;2023-04-06T05:12:26;98690.06;;;-0.05;64.47
75317;BME280;63913;51.492;10.368;2023-04-06T05:15:05;98698.13;;;-0.10;65.27
75317;BME280;63913;51.492;10.368;2023-04-06T05:17:31;98699.13;;;-0.08;64.86
75317;BME280;63913;51.492;10.368;2023-04-06T05:19:56;98696.59;;;-0.08;65.00
75317;BME280;63913;51.492;10.368;2023-04-06T05:22:24;98691.63;;;-0.07;65.19
75317;BME280;63913;51.492;10.368;2023-04-06T05:24:59;98690.44;;;-0.12;65.05
75317;BME280;63913;51.492;10.368;2023-04-06T05:27:24;98695.50;;;-0.12;65.29
75317;BME280;63913;51.492;10.368;2023-04-06T05:29:50;98695.50;;;-0.12;65.26
75317;BME280;63913;51.492;10.368;2023-04-06T05:32:16;98694.72;;;-0.11;65.43
75317;BME280;63913;51.492;10.368;2023-04-06T05:34:42;98696.66;;;-0.07;65.32
75317;BME280;63913;51.492;10.368;2023-04-06T05:37:08;98689.78;;;-0.09;65.46
75317;BME280;63913;51.492;10.368;2023-04-06T05:39:34;98693.38;;;-0.06;65.29
75317;BME280;63913;51.492;10.368;2023-04-06T05:42:03;98699.63;;;-0.01;65.00
75317;BME280;63913;51.492;10.368;2023-04-06T05:44:39;98696.50;;;0.04;64.81
75317;BME280;63913;51.492;10.368;2023-04-06T05:47:09;98705.19;;;0.07;64.98
75317;BME280;63913;51.492;10.368;2023-04-06T05:49:36;98704.69;;;0.13;64.99
75317;BME280;63913;51.492;10.368;2023-04-06T05:52:03;98700.16;;;0.20;64.58
75317;BME280;63913;51.492;10.368;2023-04-06T05:54:29;98707.16;;;0.24;63.87
75317;BME280;63913;51.492;10.368;2023-04-06T05:57:01;98699.00;;;0.28;64.06
75317;BME280;63913;51.492;10.368;2023-04-06T05:59:27;98708.53;;;0.32;64.67
75317;BME280;63913;51.492;10.368;2023-04-06T06:01:53;98706.00;;;0.32;65.03
75317;BME280;63913;51.492;10.368;2023-04-06T06:04:19;98701.13;;;0.35;65.12
75317;BME280;63913;51.492;10.368;2023-04-06T06:06:45;98704.84;;;0.41;64.96
75317;BME280;63913;51.492;10.368;2023-04-06T06:09:17;98702.59;;;0.45;65.46
75317;BME280;63913;51.492;10.368;2023-04-06T06:11:55;98698.72;;;0.50;65.29
75317;BME280;63913;51.492;10.368;2023-04-06T06:14:24;98692.09;;;0.52;64.98
75317;BME280;63913;51.492;10.368;2023-04-06T06:16:50;98693.19;;;0.56;64.73
75317;BME280;63913;51.492;10.368;2023-04-06T06:19:15;98691.91;;;0.62;64.86
75317;BME280;63913;51.492;10.368;2023-04-06T06:21:42;98696.59;;;0.69;65.24
75317;BME280;63913;51.492;10.368;2023-04-06T06:24:07;98700.47;;;0.77;65.65
75317;BME280;63913;51.492;10.368;2023-04-06T06:26:33;98704.16;;;0.83;64.46
75317;BME280;63913;51.492;10.368;2023-04-06T06:29:01;98705.34;;;0.88;64.69
75317;BME280;63913;51.492;10.368;2023-04-06T06:31:27;98704.19;;;0.96;64.10
75317;BME280;63913;51.492;10.368;2023-04-06T06:33:53;98702.03;;;1.02;63.66
75317;BME280;63913;51.492;10.368;2023-04-06T06:36:19;98696.44;;;1.07;63.42
75317;BME280;63913;51.492;10.368;2023-04-06T06:38:45;98707.03;;;1.15;63.33
75317;BME280;63913;51.492;10.368;2023-04-06T06:41:11;98703.44;;;1.25;63.92
75317;BME280;63913;51.492;10.368;2023-04-06T06:43:38;98708.09;;;1.32;63.78
75317;BME280;63913;51.492;10.368;2023-04-06T06:46:07;98705.84;;;1.36;62.97
75317;BME280;63913;51.492;10.368;2023-04-06T06:48:32;98706.31;;;1.44;63.38
75317;BME280;63913;51.492;10.368;2023-04-06T06:50:58;98699.19;;;1.51;63.44
75317;BME280;63913;51.492;10.368;2023-04-06T06:53:23;98698.75;;;1.59;64.11
75317;BME280;63913;51.492;10.368;2023-04-06T06:55:49;98695.91;;;1.67;61.98
75317;BME280;63913;51.492;10.368;2023-04-06T06:58:15;98703.19;;;1.76;62.25
75317;BME280;63913;51.492;10.368;2023-04-06T07:00:40;98699.44;;;1.84;61.66
75317;BME280;63913;51.492;10.368;2023-04-06T07:03:06;98698.22;;;1.92;60.31
75317;BME280;63913;51.492;10.368;2023-04-06T07:05:32;98695.38;;;2.01;60.30
75317;BME280;63913;51.492;10.368;2023-04-06T07:07:57;98689.75;;;2.06;59.72
75317;BME280;63913;51.492;10.368;2023-04-06T07:10:24;98694.50;;;2.15;59.56
75317;BME280;63913;51.492;10.368;2023-04-06T07:12:50;98696.59;;;2.22;59.54
75317;BME280;63913;51.492;10.368;2023-04-06T07:15:16;98691.88;;;2.28;59.74
75317;BME280;63913;51.492;10.368;2023-04-06T07:17:41;98694.78;;;2.34;58.97
75317;BME280;63913;51.492;10.368;2023-04-06T07:20:07;98688.47;;;2.42;57.30
75317;BME280;63913;51.492;10.368;2023-04-06T07:22:32;98696.53;;;2.50;57.14
75317;BME280;63913;51.492;10.368;2023-04-06T07:24:58;98683.53;;;2.60;57.14
75317;BME280;63913;51.492;10.368;2023-04-06T07:27:23;98688.00;;;2.64;57.57
75317;BME280;63913;51.492;10.368;2023-04-06T07:29:49;98686.53;;;2.67;57.26
75317;BME280;63913;51.492;10.368;2023-04-06T07:32:14;98685.97;;;2.73;57.21
75317;BME280;63913;51.492;10.368;2023-04-06T07:34:40;98682.81;;;2.77;57.65
75317;BME280;63913;51.492;10.368;2023-04-06T07:37:05;98693.31;;;2.83;57.62
75317;BME280;63913;51.492;10.368;2023-04-06T07:39:31;98687.63;;;2.87;57.69
75317;BME280;63913;51.492;10.368;2023-04-06T07:41:58;98691.25;;;2.92;57.60
75317;BME280;63913;51.492;10.368;2023-04-06T07:44:23;98687.47;;;3.00;58.32
75317;BME280;63913;51.492;10.368;2023-04-06T07:46:49;98691.31;;;3.08;57.63
75317;BME280;63913;51.492;10.368;2023-04-06T07:49:14;98680.41;;;3.26;56.15
75317;BME280;63913;51.492;10.368;2023-04-06T07:51:40;98687.41;;;3.30;56.48
75317;BME280;63913;51.492;10.368;2023-04-06T07:54:06;98687.31;;;3.28;56.94
75317;BME280;63913;51.492;10.368;2023-04-06T07:56:31;98684.94;;;3.31;57.33
75317;BME280;63913;51.492;10.368;2023-04-06T07:58:57;98689.28;;;3.34;57.30
75317;BME280;63913;51.492;10.368;2023-04-06T08:01:23;98676.84;;;3.38;57.13
75317;BME280;63913;51.492;10.368;2023-04-06T08:03:49;98684.72;;;3.43;56.98
75317;BME280;63913;51.492;10.368;2023-04-06T08:06:15;98687.72;;;3.52;57.07
75317;BME280;63913;51.492;10.368;2023-04-06T08:08:41;98686.28;;;3.57;55.55
75317;BME280;63913;51.492;10.368;2023-04-06T08:11:07;98680.38;;;3.73;51.77
75317;BME280;63913;51.492;10.368;2023-04-06T08:13:32;98679.69;;;3.93;51.10
75317;BME280;63913;51.492;10.368;2023-04-06T08:15:58;98682.63;;;4.01;52.15
75317;BME280;63913;51.492;10.368;2023-04-06T08:18:24;98682.88;;;4.05;54.09
75317;BME280;63913;51.492;10.368;2023-04-06T08:20:49;98686.56;;;4.28;50.42
75317;BME280;63913;51.492;10.368;2023-04-06T08:23:14;98680.59;;;4.28;49.21
75317;BME280;63913;51.492;10.368;2023-04-06T08:25:40;98684.84;;;4.45;49.32
75317;BME280;63913;51.492;10.368;2023-04-06T08:28:07;98684.84;;;4.45;49.09
75317;BME280;63913;51.492;10.368;2023-04-06T08:30:33;98676.63;;;4.50;48.41
75317;BME280;63913;51.492;10.368;2023-04-06T08:32:59;98678.50;;;4.54;49.51
75317;BME280;63913;51.492;10.368;2023-04-06T08:35:25;98679.31;;;4.71;48.28
75317;BME280;63913;51.492;10.368;2023-04-06T08:37:51;98683.50;;;4.69;49.83
75317;BME280;63913;51.492;10.368;2023-04-06T08:40:16;98680.19;;;4.89;47.99
75317;BME280;63913;51.492;10.368;2023-04-06T08:42:49;98679.53;;;5.11;47.51
75317;BME280;63913;51.492;10.368;2023-04-06T08:45:16;98675.72;;;5.21;47.83
75317;BME280;63913;51.492;10.368;2023-04-06T08:47:42;98678.56;;;5.27;47.43
75317;BME280;63913;51.492;10.368;2023-04-06T08:50:10;98682.84;;;5.28;47.94
75317;BME280;63913;51.492;10.368;2023-04-06T08:52:38;98678.69;;;5.30;48.57
75317;BME280;63913;51.492;10.368;2023-04-06T08:55:05;98681.41;;;5.33;48.47
75317;BME280;63913;51.492;10.368;2023-04-06T08:57:31;98684.03;;;5.34;47.64
75317;BME280;63913;51.492;10.368;2023-04-06T08:59:57;98682.09;;;5.48;47.78
75317;BME280;63913;51.492;10.368;2023-04-06T09:02:23;98688.75;;;6.02;46.66
75317;BME280;63913;51.492;10.368;2023-04-06T09:04:52;98682.66;;;6.80;44.43
75317;BME280;63913;51.492;10.368;2023-04-06T09:07:18;98683.47;;;7.46;43.25
75317;BME280;63913;51.492;10.368;2023-04-06T09:09:44;98676.34;;;8.08;41.88
75317;BME280;63913;51.492;10.368;2023-04-06T09:12:30;98674.63;;;8.57;40.50
75317;BME280;63913;51.492;10.368;2023-04-06T09:14:56;98682.78;;;8.98;39.52
75317;BME280;63913;51.492;10.368;2023-04-06T09:17:27;98681.66;;;9.75;38.56
75317;BME280;63913;51.492;10.368;2023-04-06T09:19:52;98676.22;;;9.94;37.43
75317;BME280;63913;51.492;10.368;2023-04-06T09:22:18;98673.28;;;10.43;37.36
75317;BME280;63913;51.492;10.368;2023-04-06T09:24:46;98670.44;;;10.67;36.28
75317;BME280;63913;51.492;10.368;2023-04-06T09:27:12;98674.34;;;10.86;35.70
75317;BME280;63913;51.492;10.368;2023-04-06T09:29:38;98664.22;;;10.57;35.30
75317;BME280;63913;51.492;10.368;2023-04-06T09:32:07;98660.88;;;10.97;35.05
75317;BME280;63913;51.492;10.368;2023-04-06T09:34:38;98660.75;;;10.91;34.63
75317;BME280;63913;51.492;10.368;2023-04-06T09:37:17;98659.41;;;11.46;34.93
75317;BME280;63913;51.492;10.368;2023-04-06T09:39:43;98656.53;;;11.32;34.04
75317;BME280;63913;51.492;10.368;2023-04-06T09:42:09;98657.09;;;11.58;34.60
75317;BME280;63913;51.492;10.368;2023-04-06T09:44:35;98647.66;;;11.20;33.16
75317;BME280;63913;51.492;10.368;2023-04-06T09:47:00;98653.72;;;10.84;33.31
75317;BME280;63913;51.492;10.368;2023-04-06T09:49:30;98639.56;;;11.01;33.68
75317;BME280;63913;51.492;10.368;2023-04-06T09:52:02;98647.50;;;10.75;33.26
75317;BME280;63913;51.492;10.368;2023-04-06T09:54:30;98651.63;;;11.05;33.96
75317;BME280;63913;51.492;10.368;2023-04-06T09:59:56;98643.13;;;11.08;33.52
75317;BME280;63913;51.492;10.368;2023-04-06T10:02:47;98644.56;;;11.36;33.18
75317;BME280;63913;51.492;10.368;2023-04-06T10:05:37;98654.75;;;11.30;32.90
75317;BME280;63913;51.492;10.368;2023-04-06T10:08:08;98645.09;;;11.20;33.88
75317;BME280;63913;51.492;10.368;2023-04-06T10:10:34;98650.84;;;11.08;31.32
75317;BME280;63913;51.492;10.368;2023-04-06T10:13:00;98643.06;;;10.69;32.13
75317;BME280;63913;51.492;10.368;2023-04-06T10:15:27;98645.50;;;10.28;31.95
75317;BME280;63913;51.492;10.368;2023-04-06T10:17:53;98631.00;;;10.66;32.99
75317;BME280;63913;51.492;10.368;2023-04-06T10:20:21;98633.66;;;10.71;31.45
75317;BME280;63913;51.492;10.368;2023-04-06T10:23:58;98629.97;;;10.96;32.56
75317;BME280;63913;51.492;10.368;2023-04-06T10:26:03;98638.09;;;11.14;33.60
75317;BME280;63913;51.492;10.368;2023-04-06T10:28:34;98635.81;;;11.28;32.31
75317;BME280;63913;51.492;10.368;2023-04-06T10:31:04;98631.97;;;10.70;32.07
75317;BME280;63913;51.492;10.368;2023-04-06T10:33:30;98625.25;;;10.77;31.99
75317;BME280;63913;51.492;10.368;2023-04-06T10:35:56;98616.88;;;10.85;34.07
75317;BME280;63913;51.492;10.368;2023-04-06T10:38:33;98618.22;;;10.69;34.29
75317;BME280;63913;51.492;10.368;2023-04-06T10:41:04;98624.13;;;10.65;34.48
75317;BME280;63913;51.492;10.368;2023-04-06T10:43:33;98620.84;;;11.08;34.95
75317;BME280;63913;51.492;10.368;2023-04-06T10:46:00;98604.97;;;11.29;33.90
75317;BME280;63913;51.492;10.368;2023-04-06T10:48:36;98607.16;;;11.50;35.36
75317;BME280;63913;51.492;10.368;2023-04-06T10:51:07;98607.34;;;11.61;33.45
75317;BME280;63913;51.492;10.368;2023-04-06T10:53:34;98602.16;;;11.17;31.18
75317;BME280;63913;51.492;10.368;2023-04-06T10:55:59;98601.44;;;11.24;32.72
75317;BME280;63913;51.492;10.368;2023-04-06T10:58:27;98603.28;;;11.30;32.05
75317;BME280;63913;51.492;10.368;2023-04-06T11:00:53;98608.69;;;11.43;32.53
75317;BME280;63913;51.492;10.368;2023-04-06T11:03:19;98595.91;;;11.46;33.31
75317;BME280;63913;51.492;10.368;2023-04-06T11:05:48;98608.22;;;11.21;32.63
75317;BME280;63913;51.492;10.368;2023-04-06T11:08:30;98595.16;;;11.12;33.62
75317;BME280;63913;51.492;10.368;2023-04-06T11:11:09;98612.94;;;11.01;33.97
75317;BME280;63913;51.492;10.368;2023-04-06T11:13:46;98593.38;;;11.07;34.50
75317;BME280;63913;51.492;10.368;2023-04-06T11:16:15;98592.50;;;11.07;34.19
75317;BME280;63913;51.492;10.368;2023-04-06T11:18:58;98603.91;;;11.20;33.43
75317;BME280;63913;51.492;10.368;2023-04-06T11:24:20;98596.06;;;10.75;34.07
75317;BME280;63913;51.492;10.368;2023-04-06T11:26:54;98596.94;;;11.14;34.59
75317;BME280;63913;51.492;10.368;2023-04-06T11:29:24;98608.00;;;11.12;34.27
75317;BME280;63913;51.492;10.368;2023-04-06T11:31:58;98585.22;;;11.27;34.33
75317;BME280;63913;51.492;10.368;2023-04-06T11:34:25;98594.72;;;11.31;34.59
75317;BME280;63913;51.492;10.368;2023-04-06T11:37:01;98592.50;;;11.47;34.46
75317;BME280;63913;51.492;10.368;2023-04-06T11:39:28;98593.16;;;11.39;33.83
75317;BME280;63913;51.492;10.368;2023-04-06T11:41:57;98580.47;;;11.48;34.09
75317;BME280;63913;51.492;10.368;2023-04-06T11:46:57;98573.59;;;11.47;32.55
75317;BME280;63913;51.492;10.368;2023-04-06T11:49:27;98562.06;;;11.72;34.08
75317;BME280;63913;51.492;10.368;2023-04-06T11:51:53;98545.44;;;12.01;33.68
75317;BME280;63913;51.492;10.368;2023-04-06T11:54:35;98529.22;;;12.07;31.90
75317;BME280;63913;51.492;10.368;2023-04-06T11:57:03;98561.47;;;11.83;32.39
75317;BME280;63913;51.492;10.368;2023-04-06T11:59:29;98559.97;;;11.96;31.94
75317;BME280;63913;51.492;10.368;2023-04-06T12:01:56;98560.59;;;11.84;32.43
75317;BME280;63913;51.492;10.368;2023-04-06T12:04:21;98557.34;;;11.95;31.13
75317;BME280;63913;51.492;10.368;2023-04-06T12:06:48;98556.78;;;12.11;32.20
75317;BME280;63913;51.492;10.368;2023-04-06T12:09:13;98552.69;;;12.22;32.90
75317;BME280;63913;51.492;10.368;2023-04-06T12:11:38;98552.09;;;11.89;31.92
75317;BME280;63913;51.492;10.368;2023-04-06T12:14:04;98548.25;;;12.13;31.75
75317;BME280;63913;51.492;10.368;2023-04-06T12:16:31;98532.75;;;12.12;32.59
75317;BME280;63913;51.492;10.368;2023-04-06T12:18:56;98534.63;;;12.22;31.28
75317;BME280;63913;51.492;10.368;2023-04-06T12:21:22;98542.13;;;12.07;31.64
75317;BME280;63913;51.492;10.368;2023-04-06T12:23:47;98547.84;;;11.91;31.98
75317;BME280;63913;51.492;10.368;2023-04-06T12:26:12;98531.09;;;12.15;32.75
75317;BME280;63913;51.492;10.368;2023-04-06T12:28:38;98531.59;;;12.49;32.64
75317;BME280;63913;51.492;10.368;2023-04-06T12:31:03;98532.50;;;12.51;31.03
75317;BME280;63913;51.492;10.368;2023-04-06T12:33:28;98532.09;;;12.25;30.43
75317;BME280;63913;51.492;10.368;2023-04-06T12:35:54;98539.69;;;12.17;30.74
75317;BME280;63913;51.492;10.368;2023-04-06T12:38:19;98527.03;;;12.33;31.61
75317;BME280;63913;51.492;10.368;2023-04-06T12:40:45;98527.91;;;12.32;31.48
75317;BME280;63913;51.492;10.368;2023-04-06T12:43:10;98515.97;;;12.37;30.68
75317;BME280;63913;51.492;10.368;2023-04-06T12:45:38;98526.56;;;12.58;30.36
75317;BME280;63913;51.492;10.368;2023-04-06T12:48:03;98526.34;;;12.43;31.32
75317;BME280;63913;51.492;10.368;2023-04-06T12:50:28;98529.50;;;12.23;30.46
75317;BME280;63913;51.492;10.368;2023-04-06T12:52:54;98527.81;;;12.27;31.41
75317;BME280;63913;51.492;10.368;2023-04-06T12:55:20;98513.16;;;12.24;32.19
75317;BME280;63913;51.492;10.368;2023-04-06T12:57:46;98501.41;;;12.42;32.54
75317;BME280;63913;51.492;10.368;2023-04-06T13:00:12;98503.13;;;12.40;32.33
75317;BME280;63913;51.492;10.368;2023-04-06T13:02:39;98510.44;;;12.70;31.94
75317;BME280;63913;51.492;10.368;2023-04-06T13:05:04;98514.91;;;12.84;32.17
75317;BME280;63913;51.492;10.368;2023-04-06T13:07:30;98497.28;;;12.53;30.95